sensor_id;sensor_type;location;lat;lon;timestamp;P1;durP1;ratioP1;P2;durP2;ratioP2
40847;SDS011;26570;50.962;5.340;2022-07-21T00:01:29;7.30;;;6.63;;
40847;SDS011;26570;50.962;5.340;2022-07-21T00:04:15;7.83;;;6.70;;
40847;SDS011;26570;50.962;5.340;2022-07-21T00:07:01;8.23;;;6.87;;
40847;SDS011;26570;50.962;5.340;2022-07-21T00:09:47;9.43;;;7.03;;
40847;SDS011;26570;50.962;5.340;2022-07-21T00:12:33;9.23;;;7.40;;
40847;SDS011;26570;50.962;5.340;2022-07-21T00:15:20;7.70;;;6.87;;
40847;SDS011;26570;50.962;5.340;2022-07-21T00:18:06;12.00;;;8.47;;
40847;SDS011;26570;50.962;5.340;2022-07-21T00:20:52;9.80;;;8.67;;
40847;SDS011;26570;50.962;5.340;2022-07-21T00:23:41;9.40;;;8.33;;
40847;SDS011;26570;50.962;5.340;2022-07-21T00:26:27;9.53;;;8.53;;
40847;SDS011;26570;50.962;5.340;2022-07-21T00:29:13;8.23;;;7.40;;
40847;SDS011;26570;50.962;5.340;2022-07-21T00:31:58;9.20;;;8.30;;
40847;SDS011;26570;50.962;5.340;2022-07-21T00:34:44;8.83;;;8.03;;
40847;SDS011;26570;50.962;5.340;2022-07-21T00:37:29;9.70;;;7.93;;
40847;SDS011;26570;50.962;5.340;2022-07-21T00:40:14;13.03;;;8.13;;
40847;SDS011;26570;50.962;5.340;2022-07-21T00:42:59;11.57;;;8.57;;
40847;SDS011;26570;50.962;5.340;2022-07-21T00:45:45;9.30;;;8.37;;
40847;SDS011;26570;50.962;5.340;2022-07-21T00:48:30;13.07;;;8.73;;
40847;SDS011;26570;50.962;5.340;2022-07-21T00:51:15;10.40;;;9.40;;
40847;SDS011;26570;50.962;5.340;2022-07-21T00:53:59;9.20;;;8.30;;
40847;SDS011;26570;50.962;5.340;2022-07-21T00:56:44;11.43;;;8.87;;
40847;SDS011;26570;50.962;5.340;2022-07-21T00:59:31;10.67;;;9.57;;
40847;SDS011;26570;50.962;5.340;2022-07-21T01:02:16;10.00;;;8.97;;
40847;SDS011;26570;50.962;5.340;2022-07-21T01:05:03;10.37;;;8.67;;
40847;SDS011;26570;50.962;5.340;2022-07-21T01:07:56;12.77;;;9.97;;
40847;SDS011;26570;50.962;5.340;2022-07-21T01:10:46;12.10;;;9.13;;
40847;SDS011;26570;50.962;5.340;2022-07-21T01:13:31;12.20;;;10.33;;
40847;SDS011;26570;50.962;5.340;2022-07-21T01:16:16;14.97;;;9.63;;
40847;SDS011;26570;50.962;5.340;2022-07-21T01:19:02;13.07;;;9.67;;
40847;SDS011;26570;50.962;5.340;2022-07-21T01:21:49;10.90;;;9.80;;
40847;SDS011;26570;50.962;5.340;2022-07-21T01:24:36;13.20;;;10.67;;
40847;SDS011;26570;50.962;5.340;2022-07-21T01:27:23;13.07;;;10.73;;
40847;SDS011;26570;50.962;5.340;2022-07-21T01:30:13;13.17;;;11.77;;
40847;SDS011;26570;50.962;5.340;2022-07-21T01:32:59;16.33;;;11.40;;
40847;SDS011;26570;50.962;5.340;2022-07-21T01:35:45;12.80;;;11.10;;
40847;SDS011;26570;50.962;5.340;2022-07-21T01:38:33;13.77;;;11.73;;
40847;SDS011;26570;50.962;5.340;2022-07-21T01:41:38;14.37;;;12.00;;
40847;SDS011;26570;50.962;5.340;2022-07-21T01:44:24;13.30;;;11.90;;
40847;SDS011;26570;50.962;5.340;2022-07-21T01:47:11;12.70;;;11.40;;
40847;SDS011;26570;50.962;5.340;2022-07-21T01:49:57;17.17;;;12.50;;
40847;SDS011;26570;50.962;5.340;2022-07-21T01:52:42;16.23;;;12.53;;
40847;SDS011;26570;50.962;5.340;2022-07-21T01:55:28;16.07;;;13.53;;
40847;SDS011;26570;50.962;5.340;2022-07-21T01:58:15;13.97;;;12.53;;
40847;SDS011;26570;50.962;5.340;2022-07-21T02:01:00;19.13;;;13.63;;
40847;SDS011;26570;50.962;5.340;2022-07-21T02:03:47;15.40;;;13.17;;
40847;SDS011;26570;50.962;5.340;2022-07-21T02:06:33;16.40;;;12.87;;
40847;SDS011;26570;50.962;5.340;2022-07-21T02:09:19;17.27;;;13.37;;
40847;SDS011;26570;50.962;5.340;2022-07-21T02:12:05;16.73;;;13.60;;
40847;SDS011;26570;50.962;5.340;2022-07-21T02:14:51;19.33;;;13.70;;
40847;SDS011;26570;50.962;5.340;2022-07-21T02:17:39;15.57;;;13.77;;
40847;SDS011;26570;50.962;5.340;2022-07-21T02:20:25;17.43;;;14.57;;
40847;SDS011;26570;50.962;5.340;2022-07-21T02:23:11;18.83;;;15.37;;
40847;SDS011;26570;50.962;5.340;2022-07-21T02:25:57;17.63;;;15.07;;
40847;SDS011;26570;50.962;5.340;2022-07-21T02:28:44;17.70;;;15.70;;
40847;SDS011;26570;50.962;5.340;2022-07-21T02:31:30;23.17;;;16.73;;
40847;SDS011;26570;50.962;5.340;2022-07-21T02:34:16;19.97;;;16.80;;
40847;SDS011;26570;50.962;5.340;2022-07-21T02:37:02;22.17;;;15.03;;
40847;SDS011;26570;50.962;5.340;2022-07-21T02:39:48;18.93;;;15.87;;
40847;SDS011;26570;50.962;5.340;2022-07-21T02:42:34;21.43;;;16.43;;
40847;SDS011;26570;50.962;5.340;2022-07-21T02:45:21;18.10;;;16.00;;
40847;SDS011;26570;50.962;5.340;2022-07-21T02:48:12;19.43;;;16.80;;
40847;SDS011;26570;50.962;5.340;2022-07-21T02:50:58;19.67;;;17.00;;
40847;SDS011;26570;50.962;5.340;2022-07-21T02:53:45;19.67;;;16.83;;
40847;SDS011;26570;50.962;5.340;2022-07-21T02:56:31;19.63;;;15.53;;
40847;SDS011;26570;50.962;5.340;2022-07-21T02:59:17;19.27;;;17.27;;
40847;SDS011;26570;50.962;5.340;2022-07-21T03:02:03;20.93;;;17.60;;
40847;SDS011;26570;50.962;5.340;2022-07-21T03:04:49;20.83;;;16.93;;
40847;SDS011;26570;50.962;5.340;2022-07-21T03:07:35;20.93;;;17.33;;
40847;SDS011;26570;50.962;5.340;2022-07-21T03:10:21;21.23;;;17.00;;
40847;SDS011;26570;50.962;5.340;2022-07-21T03:13:07;22.53;;;17.37;;
40847;SDS011;26570;50.962;5.340;2022-07-21T03:15:53;21.37;;;17.07;;
40847;SDS011;26570;50.962;5.340;2022-07-21T03:18:39;20.93;;;16.77;;
40847;SDS011;26570;50.962;5.340;2022-07-21T03:21:25;20.77;;;18.57;;
40847;SDS011;26570;50.962;5.340;2022-07-21T03:24:11;21.20;;;17.87;;
40847;SDS011;26570;50.962;5.340;2022-07-21T03:26:57;19.57;;;17.50;;
40847;SDS011;26570;50.962;5.340;2022-07-21T03:29:42;21.63;;;17.53;;
40847;SDS011;26570;50.962;5.340;2022-07-21T03:32:30;21.97;;;16.43;;
40847;SDS011;26570;50.962;5.340;2022-07-21T03:35:16;21.97;;;17.23;;
40847;SDS011;26570;50.962;5.340;2022-07-21T03:38:02;25.93;;;17.10;;
40847;SDS011;26570;50.962;5.340;2022-07-21T03:40:48;20.20;;;17.20;;
40847;SDS011;26570;50.962;5.340;2022-07-21T03:43:34;25.53;;;17.90;;
40847;SDS011;26570;50.962;5.340;2022-07-21T03:46:19;24.73;;;18.20;;
40847;SDS011;26570;50.962;5.340;2022-07-21T03:49:05;22.40;;;17.93;;
40847;SDS011;26570;50.962;5.340;2022-07-21T03:51:51;24.60;;;17.63;;
40847;SDS011;26570;50.962;5.340;2022-07-21T03:54:38;22.13;;;17.37;;
40847;SDS011;26570;50.962;5.340;2022-07-21T03:57:24;23.47;;;17.70;;
40847;SDS011;26570;50.962;5.340;2022-07-21T04:00:14;19.40;;;16.73;;
40847;SDS011;26570;50.962;5.340;2022-07-21T04:03:01;28.10;;;17.43;;
40847;SDS011;26570;50.962;5.340;2022-07-21T04:05:48;22.20;;;17.40;;
40847;SDS011;26570;50.962;5.340;2022-07-21T04:08:34;19.90;;;16.03;;
40847;SDS011;26570;50.962;5.340;2022-07-21T04:11:20;22.63;;;16.53;;
40847;SDS011;26570;50.962;5.340;2022-07-21T04:14:06;20.53;;;15.80;;
40847;SDS011;26570;50.962;5.340;2022-07-21T04:16:51;20.20;;;15.23;;
40847;SDS011;26570;50.962;5.340;2022-07-21T04:19:38;20.63;;;16.87;;
40847;SDS011;26570;50.962;5.340;2022-07-21T04:22:24;18.47;;;16.00;;
40847;SDS011;26570;50.962;5.340;2022-07-21T04:25:10;17.20;;;15.40;;
40847;SDS011;26570;50.962;5.340;2022-07-21T04:27:55;19.73;;;15.37;;
40847;SDS011;26570;50.962;5.340;2022-07-21T04:30:42;23.60;;;16.20;;
40847;SDS011;26570;50.962;5.340;2022-07-21T04:33:28;19.73;;;15.67;;
40847;SDS011;26570;50.962;5.340;2022-07-21T04:36:14;23.33;;;15.63;;
40847;SDS011;26570;50.962;5.340;2022-07-21T04:39:00;24.00;;;15.10;;
40847;SDS011;26570;50.962;5.340;2022-07-21T04:41:46;20.70;;;15.53;;
40847;SDS011;26570;50.962;5.340;2022-07-21T04:44:32;18.43;;;15.20;;
40847;SDS011;26570;50.962;5.340;2022-07-21T04:47:18;19.30;;;14.97;;
40847;SDS011;26570;50.962;5.340;2022-07-21T04:50:04;20.70;;;14.33;;
40847;SDS011;26570;50.962;5.340;2022-07-21T04:52:52;22.43;;;15.37;;
40847;SDS011;26570;50.962;5.340;2022-07-21T04:55:38;17.73;;;14.80;;
40847;SDS011;26570;50.962;5.340;2022-07-21T04:58:23;14.60;;;13.07;;
40847;SDS011;26570;50.962;5.340;2022-07-21T05:01:09;14.70;;;13.30;;
40847;SDS011;26570;50.962;5.340;2022-07-21T05:03:55;18.00;;;13.00;;
40847;SDS011;26570;50.962;5.340;2022-07-21T05:06:41;19.73;;;13.90;;
40847;SDS011;26570;50.962;5.340;2022-07-21T05:09:27;23.07;;;13.03;;
40847;SDS011;26570;50.962;5.340;2022-07-21T05:12:14;13.03;;;11.77;;
40847;SDS011;26570;50.962;5.340;2022-07-21T05:15:01;16.80;;;11.93;;
40847;SDS011;26570;50.962;5.340;2022-07-21T05:17:48;16.17;;;11.27;;
40847;SDS011;26570;50.962;5.340;2022-07-21T05:20:33;16.37;;;10.87;;
40847;SDS011;26570;50.962;5.340;2022-07-21T05:23:19;14.73;;;10.43;;
40847;SDS011;26570;50.962;5.340;2022-07-21T05:26:05;13.37;;;10.83;;
40847;SDS011;26570;50.962;5.340;2022-07-21T05:28:50;11.30;;;9.60;;
40847;SDS011;26570;50.962;5.340;2022-07-21T05:31:37;12.68;;;10.43;;
40847;SDS011;26570;50.962;5.340;2022-07-21T05:34:23;16.43;;;11.20;;
40847;SDS011;26570;50.962;5.340;2022-07-21T05:37:08;12.05;;;10.43;;
40847;SDS011;26570;50.962;5.340;2022-07-21T05:39:53;17.73;;;10.90;;
40847;SDS011;26570;50.962;5.340;2022-07-21T05:42:39;13.27;;;9.73;;
40847;SDS011;26570;50.962;5.340;2022-07-21T05:45:25;19.90;;;11.00;;
40847;SDS011;26570;50.962;5.340;2022-07-21T05:48:10;19.15;;;12.85;;
40847;SDS011;26570;50.962;5.340;2022-07-21T05:50:56;15.75;;;10.98;;
40847;SDS011;26570;50.962;5.340;2022-07-21T05:53:42;15.57;;;11.85;;
40847;SDS011;26570;50.962;5.340;2022-07-21T05:56:28;19.85;;;11.88;;
40847;SDS011;26570;50.962;5.340;2022-07-21T05:59:13;16.90;;;12.27;;
40847;SDS011;26570;50.962;5.340;2022-07-21T06:01:59;14.73;;;11.65;;
40847;SDS011;26570;50.962;5.340;2022-07-21T06:04:45;17.33;;;11.07;;
40847;SDS011;26570;50.962;5.340;2022-07-21T06:07:31;13.77;;;12.43;;
40847;SDS011;26570;50.962;5.340;2022-07-21T06:10:17;15.80;;;11.55;;
40847;SDS011;26570;50.962;5.340;2022-07-21T06:13:03;18.27;;;12.90;;
40847;SDS011;26570;50.962;5.340;2022-07-21T06:15:48;16.02;;;12.68;;
40847;SDS011;26570;50.962;5.340;2022-07-21T06:18:34;14.85;;;12.05;;
40847;SDS011;26570;50.962;5.340;2022-07-21T06:21:19;15.88;;;11.82;;
40847;SDS011;26570;50.962;5.340;2022-07-21T06:24:05;13.55;;;12.05;;
40847;SDS011;26570;50.962;5.340;2022-07-21T06:26:51;18.05;;;12.00;;
40847;SDS011;26570;50.962;5.340;2022-07-21T06:29:39;13.43;;;11.00;;
40847;SDS011;26570;50.962;5.340;2022-07-21T06:32:25;19.38;;;11.55;;
40847;SDS011;26570;50.962;5.340;2022-07-21T06:35:11;16.88;;;11.65;;
40847;SDS011;26570;50.962;5.340;2022-07-21T06:37:57;16.75;;;12.25;;
40847;SDS011;26570;50.962;5.340;2022-07-21T06:40:43;17.65;;;11.23;;
40847;SDS011;26570;50.962;5.340;2022-07-21T06:43:28;14.80;;;11.80;;
40847;SDS011;26570;50.962;5.340;2022-07-21T06:46:14;16.70;;;11.65;;
40847;SDS011;26570;50.962;5.340;2022-07-21T06:49:00;14.32;;;11.65;;
40847;SDS011;26570;50.962;5.340;2022-07-21T06:51:46;15.68;;;11.63;;
40847;SDS011;26570;50.962;5.340;2022-07-21T06:54:32;13.32;;;11.25;;
40847;SDS011;26570;50.962;5.340;2022-07-21T06:57:17;19.00;;;11.65;;
40847;SDS011;26570;50.962;5.340;2022-07-21T07:00:04;13.13;;;11.05;;
40847;SDS011;26570;50.962;5.340;2022-07-21T07:02:51;19.23;;;12.38;;
40847;SDS011;26570;50.962;5.340;2022-07-21T07:05:37;19.15;;;11.60;;
40847;SDS011;26570;50.962;5.340;2022-07-21T07:08:22;19.70;;;14.00;;
40847;SDS011;26570;50.962;5.340;2022-07-21T07:11:08;22.90;;;15.30;;
40847;SDS011;26570;50.962;5.340;2022-07-21T07:13:53;22.38;;;13.50;;
40847;SDS011;26570;50.962;5.340;2022-07-21T07:16:40;25.75;;;16.25;;
40847;SDS011;26570;50.962;5.340;2022-07-21T07:19:26;22.98;;;13.65;;
40847;SDS011;26570;50.962;5.340;2022-07-21T07:22:12;22.13;;;13.55;;
40847;SDS011;26570;50.962;5.340;2022-07-21T07:24:58;23.05;;;13.73;;
40847;SDS011;26570;50.962;5.340;2022-07-21T07:27:44;24.30;;;14.07;;
40847;SDS011;26570;50.962;5.340;2022-07-21T07:30:30;21.05;;;13.20;;
40847;SDS011;26570;50.962;5.340;2022-07-21T07:33:15;24.15;;;13.95;;
40847;SDS011;26570;50.962;5.340;2022-07-21T07:36:01;20.55;;;13.77;;
40847;SDS011;26570;50.962;5.340;2022-07-21T07:38:46;24.50;;;15.60;;
40847;SDS011;26570;50.962;5.340;2022-07-21T07:41:32;22.17;;;15.45;;
40847;SDS011;26570;50.962;5.340;2022-07-21T07:44:19;24.15;;;16.33;;
40847;SDS011;26570;50.962;5.340;2022-07-21T07:47:06;24.98;;;16.98;;
40847;SDS011;26570;50.962;5.340;2022-07-21T07:49:51;28.83;;;17.63;;
40847;SDS011;26570;50.962;5.340;2022-07-21T07:52:37;27.90;;;16.67;;
40847;SDS011;26570;50.962;5.340;2022-07-21T07:55:22;28.13;;;16.70;;
40847;SDS011;26570;50.962;5.340;2022-07-21T07:58:07;30.47;;;18.03;;
40847;SDS011;26570;50.962;5.340;2022-07-21T08:00:53;26.93;;;16.73;;
40847;SDS011;26570;50.962;5.340;2022-07-21T08:03:39;24.43;;;16.43;;
40847;SDS011;26570;50.962;5.340;2022-07-21T08:06:26;27.93;;;17.43;;
40847;SDS011;26570;50.962;5.340;2022-07-21T08:09:12;28.80;;;16.27;;
40847;SDS011;26570;50.962;5.340;2022-07-21T08:11:59;25.17;;;17.83;;
40847;SDS011;26570;50.962;5.340;2022-07-21T08:14:44;30.80;;;18.20;;
40847;SDS011;26570;50.962;5.340;2022-07-21T08:17:29;29.40;;;18.87;;
40847;SDS011;26570;50.962;5.340;2022-07-21T08:20:16;29.50;;;18.08;;
40847;SDS011;26570;50.962;5.340;2022-07-21T08:23:02;29.10;;;17.93;;
40847;SDS011;26570;50.962;5.340;2022-07-21T08:25:48;29.92;;;17.77;;
40847;SDS011;26570;50.962;5.340;2022-07-21T08:28:34;27.77;;;18.33;;
40847;SDS011;26570;50.962;5.340;2022-07-21T08:31:24;26.10;;;19.03;;
40847;SDS011;26570;50.962;5.340;2022-07-21T08:34:09;34.58;;;19.27;;
40847;SDS011;26570;50.962;5.340;2022-07-21T08:36:57;28.63;;;19.15;;
40847;SDS011;26570;50.962;5.340;2022-07-21T08:39:46;27.95;;;18.67;;
40847;SDS011;26570;50.962;5.340;2022-07-21T08:42:32;28.98;;;17.90;;
40847;SDS011;26570;50.962;5.340;2022-07-21T08:45:23;26.80;;;17.60;;
40847;SDS011;26570;50.962;5.340;2022-07-21T08:48:09;25.92;;;18.50;;
40847;SDS011;26570;50.962;5.340;2022-07-21T08:51:02;29.30;;;19.02;;
40847;SDS011;26570;50.962;5.340;2022-07-21T08:53:48;24.20;;;16.43;;
40847;SDS011;26570;50.962;5.340;2022-07-21T08:56:35;25.52;;;16.95;;
40847;SDS011;26570;50.962;5.340;2022-07-21T08:59:21;24.13;;;15.57;;
40847;SDS011;26570;50.962;5.340;2022-07-21T09:02:25;24.08;;;16.63;;
40847;SDS011;26570;50.962;5.340;2022-07-21T09:05:11;24.15;;;16.40;;
40847;SDS011;26570;50.962;5.340;2022-07-21T09:07:56;21.17;;;15.25;;
40847;SDS011;26570;50.962;5.340;2022-07-21T09:10:42;19.20;;;14.07;;
40847;SDS011;26570;50.962;5.340;2022-07-21T09:13:27;20.40;;;14.93;;
40847;SDS011;26570;50.962;5.340;2022-07-21T09:16:12;18.13;;;14.00;;
40847;SDS011;26570;50.962;5.340;2022-07-21T09:18:57;17.87;;;14.07;;
40847;SDS011;26570;50.962;5.340;2022-07-21T09:21:42;21.87;;;14.90;;
40847;SDS011;26570;50.962;5.340;2022-07-21T09:24:31;23.90;;;15.50;;
40847;SDS011;26570;50.962;5.340;2022-07-21T09:27:22;24.13;;;17.10;;
40847;SDS011;26570;50.962;5.340;2022-07-21T09:30:08;27.33;;;17.73;;
40847;SDS011;26570;50.962;5.340;2022-07-21T09:32:54;30.43;;;19.57;;
40847;SDS011;26570;50.962;5.340;2022-07-21T09:35:39;28.70;;;20.50;;
40847;SDS011;26570;50.962;5.340;2022-07-21T09:38:38;29.55;;;20.50;;
40847;SDS011;26570;50.962;5.340;2022-07-21T09:41:26;33.17;;;22.00;;
40847;SDS011;26570;50.962;5.340;2022-07-21T09:44:11;35.13;;;21.77;;
40847;SDS011;26570;50.962;5.340;2022-07-21T09:47:08;38.50;;;23.83;;
40847;SDS011;26570;50.962;5.340;2022-07-21T09:49:55;40.83;;;25.30;;
40847;SDS011;26570;50.962;5.340;2022-07-21T09:52:41;37.10;;;24.73;;
40847;SDS011;26570;50.962;5.340;2022-07-21T09:55:28;37.53;;;25.27;;
40847;SDS011;26570;50.962;5.340;2022-07-21T09:58:15;44.60;;;26.23;;
40847;SDS011;26570;50.962;5.340;2022-07-21T10:01:00;42.70;;;26.60;;
40847;SDS011;26570;50.962;5.340;2022-07-21T10:03:46;40.50;;;26.50;;
40847;SDS011;26570;50.962;5.340;2022-07-21T10:06:33;41.00;;;24.90;;
40847;SDS011;26570;50.962;5.340;2022-07-21T10:09:20;38.37;;;25.53;;
40847;SDS011;26570;50.962;5.340;2022-07-21T10:12:05;42.00;;;26.70;;
40847;SDS011;26570;50.962;5.340;2022-07-21T10:14:51;40.50;;;27.40;;
40847;SDS011;26570;50.962;5.340;2022-07-21T10:17:37;35.93;;;23.47;;
40847;SDS011;26570;50.962;5.340;2022-07-21T10:20:25;35.40;;;22.57;;
40847;SDS011;26570;50.962;5.340;2022-07-21T10:23:16;33.53;;;22.57;;
40847;SDS011;26570;50.962;5.340;2022-07-21T10:26:15;33.90;;;21.60;;
40847;SDS011;26570;50.962;5.340;2022-07-21T10:29:00;23.93;;;17.47;;
40847;SDS011;26570;50.962;5.340;2022-07-21T10:31:46;24.80;;;17.37;;
40847;SDS011;26570;50.962;5.340;2022-07-21T10:34:34;24.63;;;16.97;;
40847;SDS011;26570;50.962;5.340;2022-07-21T10:45:53;26.63;;;18.17;;
40847;SDS011;26570;50.962;5.340;2022-07-21T10:51:24;22.70;;;17.30;;
40847;SDS011;26570;50.962;5.340;2022-07-21T10:54:16;21.33;;;15.57;;
40847;SDS011;26570;50.962;5.340;2022-07-21T11:00:21;19.80;;;14.10;;
40847;SDS011;26570;50.962;5.340;2022-07-21T11:03:14;15.80;;;12.53;;
40847;SDS011;26570;50.962;5.340;2022-07-21T11:06:15;15.73;;;11.97;;
40847;SDS011;26570;50.962;5.340;2022-07-21T11:09:09;12.65;;;11.05;;
40847;SDS011;26570;50.962;5.340;2022-07-21T11:12:00;16.10;;;10.77;;
40847;SDS011;26570;50.962;5.340;2022-07-21T11:14:49;11.88;;;10.35;;
40847;SDS011;26570;50.962;5.340;2022-07-21T11:17:36;18.95;;;10.57;;
40847;SDS011;26570;50.962;5.340;2022-07-21T11:20:26;14.48;;;10.25;;
40847;SDS011;26570;50.962;5.340;2022-07-21T11:23:12;10.93;;;9.80;;
40847;SDS011;26570;50.962;5.340;2022-07-21T11:26:02;11.75;;;8.93;;
40847;SDS011;26570;50.962;5.340;2022-07-21T11:29:02;11.60;;;8.38;;
40847;SDS011;26570;50.962;5.340;2022-07-21T11:31:53;8.32;;;6.72;;
40847;SDS011;26570;50.962;5.340;2022-07-21T11:37:41;10.75;;;7.07;;
40847;SDS011;26570;50.962;5.340;2022-07-21T11:40:28;9.35;;;5.38;;
40847;SDS011;26570;50.962;5.340;2022-07-21T11:43:14;7.47;;;4.93;;
40847;SDS011;26570;50.962;5.340;2022-07-21T11:46:01;8.05;;;3.80;;
40847;SDS011;26570;50.962;5.340;2022-07-21T11:48:59;6.07;;;4.45;;
40847;SDS011;26570;50.962;5.340;2022-07-21T11:51:56;4.00;;;3.60;;
40847;SDS011;26570;50.962;5.340;2022-07-21T11:54:45;7.03;;;4.00;;
40847;SDS011;26570;50.962;5.340;2022-07-21T11:57:32;4.75;;;3.85;;
40847;SDS011;26570;50.962;5.340;2022-07-21T12:00:24;5.88;;;3.90;;
40847;SDS011;26570;50.962;5.340;2022-07-21T12:03:12;6.75;;;4.28;;
40847;SDS011;26570;50.962;5.340;2022-07-21T12:06:00;5.50;;;3.72;;
40847;SDS011;26570;50.962;5.340;2022-07-21T12:08:48;7.43;;;4.30;;
40847;SDS011;26570;50.962;5.340;2022-07-21T12:11:40;8.27;;;4.45;;
40847;SDS011;26570;50.962;5.340;2022-07-21T12:14:41;11.75;;;5.90;;
40847;SDS011;26570;50.962;5.340;2022-07-21T12:17:38;10.07;;;7.22;;
40847;SDS011;26570;50.962;5.340;2022-07-21T12:23:20;14.52;;;9.50;;
40847;SDS011;26570;50.962;5.340;2022-07-21T12:26:21;15.68;;;9.43;;
40847;SDS011;26570;50.962;5.340;2022-07-21T12:29:07;17.80;;;10.50;;
40847;SDS011;26570;50.962;5.340;2022-07-21T12:31:55;12.23;;;10.18;;
40847;SDS011;26570;50.962;5.340;2022-07-21T12:34:50;15.20;;;11.23;;
40847;SDS011;26570;50.962;5.340;2022-07-21T12:40:49;16.65;;;11.30;;
40847;SDS011;26570;50.962;5.340;2022-07-21T12:43:42;15.32;;;10.23;;
40847;SDS011;26570;50.962;5.340;2022-07-21T12:46:39;16.30;;;9.10;;
40847;SDS011;26570;50.962;5.340;2022-07-21T12:49:29;14.98;;;9.30;;
40847;SDS011;26570;50.962;5.340;2022-07-21T12:52:37;10.55;;;8.02;;
40847;SDS011;26570;50.962;5.340;2022-07-21T12:55:23;10.68;;;7.45;;
40847;SDS011;26570;50.962;5.340;2022-07-21T12:58:13;7.07;;;5.00;;
40847;SDS011;26570;50.962;5.340;2022-07-21T13:00:59;9.88;;;5.28;;
40847;SDS011;26570;50.962;5.340;2022-07-21T13:03:49;6.00;;;4.90;;
40847;SDS011;26570;50.962;5.340;2022-07-21T13:06:37;6.28;;;4.38;;
40847;SDS011;26570;50.962;5.340;2022-07-21T13:09:26;4.53;;;3.45;;
40847;SDS011;26570;50.962;5.340;2022-07-21T13:12:15;7.07;;;3.42;;
40847;SDS011;26570;50.962;5.340;2022-07-21T13:15:05;6.10;;;2.58;;
40847;SDS011;26570;50.962;5.340;2022-07-21T13:17:53;5.97;;;2.33;;
40847;SDS011;26570;50.962;5.340;2022-07-21T13:20:41;7.60;;;2.70;;
40847;SDS011;26570;50.962;5.340;2022-07-21T13:23:28;6.18;;;3.13;;
40847;SDS011;26570;50.962;5.340;2022-07-21T13:26:15;3.35;;;2.38;;
40847;SDS011;26570;50.962;5.340;2022-07-21T13:29:02;4.22;;;2.00;;
40847;SDS011;26570;50.962;5.340;2022-07-21T13:31:52;4.75;;;1.83;;
40847;SDS011;26570;50.962;5.340;2022-07-21T13:34:38;3.15;;;1.30;;
40847;SDS011;26570;50.962;5.340;2022-07-21T13:37:24;4.50;;;1.70;;
40847;SDS011;26570;50.962;5.340;2022-07-21T13:40:11;3.13;;;1.10;;
40847;SDS011;26570;50.962;5.340;2022-07-21T13:42:57;1.65;;;0.93;;
40847;SDS011;26570;50.962;5.340;2022-07-21T13:45:43;3.58;;;1.13;;
40847;SDS011;26570;50.962;5.340;2022-07-21T13:48:31;3.53;;;1.30;;
40847;SDS011;26570;50.962;5.340;2022-07-21T13:51:18;5.40;;;1.70;;
40847;SDS011;26570;50.962;5.340;2022-07-21T13:54:04;4.65;;;1.95;;
40847;SDS011;26570;50.962;5.340;2022-07-21T13:56:51;4.25;;;2.10;;
40847;SDS011;26570;50.962;5.340;2022-07-21T13:59:37;5.38;;;2.13;;
40847;SDS011;26570;50.962;5.340;2022-07-21T14:02:25;10.75;;;2.63;;
40847;SDS011;26570;50.962;5.340;2022-07-21T14:05:12;5.13;;;2.80;;
40847;SDS011;26570;50.962;5.340;2022-07-21T14:07:58;9.60;;;4.13;;
40847;SDS011;26570;50.962;5.340;2022-07-21T14:10:44;7.00;;;3.28;;
40847;SDS011;26570;50.962;5.340;2022-07-21T14:13:30;9.10;;;3.50;;
40847;SDS011;26570;50.962;5.340;2022-07-21T14:16:16;7.35;;;2.10;;
40847;SDS011;26570;50.962;5.340;2022-07-21T14:19:02;6.00;;;2.10;;
40847;SDS011;26570;50.962;5.340;2022-07-21T14:21:49;7.75;;;1.83;;
40847;SDS011;26570;50.962;5.340;2022-07-21T14:24:36;8.77;;;1.95;;
40847;SDS011;26570;50.962;5.340;2022-07-21T14:30:26;7.82;;;1.77;;
40847;SDS011;26570;50.962;5.340;2022-07-21T14:33:13;5.90;;;1.93;;
40847;SDS011;26570;50.962;5.340;2022-07-21T14:35:59;5.07;;;1.77;;
40847;SDS011;26570;50.962;5.340;2022-07-21T14:38:46;8.32;;;2.00;;
40847;SDS011;26570;50.962;5.340;2022-07-21T14:41:31;9.75;;;2.50;;
40847;SDS011;26570;50.962;5.340;2022-07-21T14:44:17;5.20;;;2.83;;
40847;SDS011;26570;50.962;5.340;2022-07-21T14:47:04;9.00;;;3.60;;
40847;SDS011;26570;50.962;5.340;2022-07-21T14:49:50;7.75;;;3.42;;
40847;SDS011;26570;50.962;5.340;2022-07-21T14:52:37;13.10;;;4.63;;
40847;SDS011;26570;50.962;5.340;2022-07-21T14:55:24;8.98;;;3.80;;
40847;SDS011;26570;50.962;5.340;2022-07-21T14:58:12;8.82;;;4.00;;
40847;SDS011;26570;50.962;5.340;2022-07-21T15:00:58;8.35;;;4.88;;
40847;SDS011;26570;50.962;5.340;2022-07-21T15:03:44;14.00;;;4.55;;
40847;SDS011;26570;50.962;5.340;2022-07-21T15:06:30;12.45;;;4.60;;
40847;SDS011;26570;50.962;5.340;2022-07-21T15:09:16;10.48;;;4.18;;
40847;SDS011;26570;50.962;5.340;2022-07-21T15:12:02;14.85;;;3.97;;
40847;SDS011;26570;50.962;5.340;2022-07-21T15:14:48;12.65;;;4.95;;
40847;SDS011;26570;50.962;5.340;2022-07-21T15:17:33;10.93;;;5.18;;
40847;SDS011;26570;50.962;5.340;2022-07-21T15:20:18;14.90;;;5.10;;
40847;SDS011;26570;50.962;5.340;2022-07-21T15:23:03;14.27;;;4.53;;
40847;SDS011;26570;50.962;5.340;2022-07-21T15:25:49;13.73;;;4.27;;
40847;SDS011;26570;50.962;5.340;2022-07-21T15:28:35;16.53;;;4.40;;
40847;SDS011;26570;50.962;5.340;2022-07-21T15:31:21;17.03;;;4.77;;
40847;SDS011;26570;50.962;5.340;2022-07-21T15:34:08;13.43;;;4.90;;
40847;SDS011;26570;50.962;5.340;2022-07-21T15:36:54;14.50;;;5.00;;
40847;SDS011;26570;50.962;5.340;2022-07-21T15:39:40;12.27;;;5.32;;
40847;SDS011;26570;50.962;5.340;2022-07-21T15:42:26;12.93;;;5.07;;
40847;SDS011;26570;50.962;5.340;2022-07-21T15:45:15;12.63;;;4.97;;
40847;SDS011;26570;50.962;5.340;2022-07-21T15:48:00;14.50;;;5.57;;
40847;SDS011;26570;50.962;5.340;2022-07-21T15:50:47;13.80;;;5.17;;
40847;SDS011;26570;50.962;5.340;2022-07-21T15:53:35;13.93;;;5.60;;
40847;SDS011;26570;50.962;5.340;2022-07-21T15:56:21;14.95;;;6.22;;
40847;SDS011;26570;50.962;5.340;2022-07-21T15:59:07;9.75;;;4.32;;
40847;SDS011;26570;50.962;5.340;2022-07-21T16:02:15;8.20;;;3.35;;
40847;SDS011;26570;50.962;5.340;2022-07-21T16:05:01;22.27;;;5.72;;
40847;SDS011;26570;50.962;5.340;2022-07-21T16:07:48;10.13;;;3.83;;
40847;SDS011;26570;50.962;5.340;2022-07-21T16:10:34;15.88;;;4.25;;
40847;SDS011;26570;50.962;5.340;2022-07-21T16:13:20;16.50;;;3.63;;
40847;SDS011;26570;50.962;5.340;2022-07-21T16:16:06;14.90;;;3.13;;
40847;SDS011;26570;50.962;5.340;2022-07-21T16:18:53;13.95;;;4.25;;
40847;SDS011;26570;50.962;5.340;2022-07-21T16:21:41;13.55;;;3.33;;
40847;SDS011;26570;50.962;5.340;2022-07-21T16:24:26;9.68;;;4.30;;
40847;SDS011;26570;50.962;5.340;2022-07-21T16:27:13;19.80;;;3.63;;
40847;SDS011;26570;50.962;5.340;2022-07-21T16:29:59;10.48;;;3.25;;
40847;SDS011;26570;50.962;5.340;2022-07-21T16:32:45;16.10;;;2.70;;
40847;SDS011;26570;50.962;5.340;2022-07-21T16:35:31;17.27;;;3.25;;
40847;SDS011;26570;50.962;5.340;2022-07-21T16:38:17;16.95;;;3.97;;
40847;SDS011;26570;50.962;5.340;2022-07-21T16:41:03;14.15;;;3.63;;
40847;SDS011;26570;50.962;5.340;2022-07-21T16:43:48;15.07;;;3.72;;
40847;SDS011;26570;50.962;5.340;2022-07-21T16:46:33;12.18;;;3.17;;
40847;SDS011;26570;50.962;5.340;2022-07-21T16:49:19;13.35;;;4.05;;
40847;SDS011;26570;50.962;5.340;2022-07-21T16:52:05;9.23;;;3.38;;